createdAt,value
2023-09-27T00:01:37.715Z,12
2023-09-27T00:04:08.634Z,11
2023-09-27T00:06:39.969Z,10
2023-09-27T00:09:10.465Z,8
2023-09-27T00:11:41.023Z,8
2023-09-27T00:14:11.625Z,8
2023-09-27T00:16:42.144Z,8
2023-09-27T00:19:12.716Z,8
2023-09-27T00:21:43.333Z,8
2023-09-27T00:24:14.035Z,8
2023-09-27T00:26:45.455Z,4
2023-09-27T00:29:16.749Z,8
2023-09-27T00:31:47.933Z,8
2023-09-27T00:34:19.111Z,8
2023-09-27T00:36:49.872Z,10
2023-09-27T00:39:21.402Z,8
2023-09-27T00:41:50.642Z,8
2023-09-27T00:44:21.330Z,8
2023-09-27T00:46:51.939Z,8
2023-09-27T00:49:22.693Z,8
2023-09-27T00:51:53.216Z,7
2023-09-27T00:54:24.353Z,8
2023-09-27T00:56:55.694Z,8
2023-09-27T00:59:26.417Z,8
2023-09-27T01:01:58.471Z,8
2023-09-27T01:04:29.340Z,8
2023-09-27T01:07:00.273Z,8
2023-09-27T01:09:31.039Z,8
2023-09-27T01:12:02.080Z,7
2023-09-27T01:14:32.751Z,8
2023-09-27T01:17:04.235Z,8
2023-09-27T01:19:35.116Z,6
2023-09-27T01:22:05.402Z,4
2023-09-27T01:24:37.351Z,8
2023-09-27T01:27:06.264Z,4
2023-09-27T01:29:38.207Z,8
2023-09-27T01:32:08.915Z,8
2023-09-27T01:34:39.801Z,6
2023-09-27T01:37:08.730Z,7
2023-09-27T01:39:39.191Z,8
2023-09-27T01:42:09.700Z,8
2023-09-27T01:44:40.485Z,8
2023-09-27T01:47:11.679Z,8
2023-09-27T01:49:45.215Z,8
2023-09-27T01:52:14.448Z,8
2023-09-27T01:54:45.277Z,8
2023-09-27T01:57:16.564Z,7
2023-09-27T01:59:45.713Z,8
2023-09-27T02:02:16.535Z,6
2023-09-27T02:04:47.573Z,8
2023-09-27T02:07:18.447Z,7
2023-09-27T02:09:49.459Z,7
2023-09-27T02:12:20.539Z,8
2023-09-27T02:14:49.740Z,8
2023-09-27T02:17:20.218Z,8
2023-09-27T02:19:51.033Z,8
2023-09-27T02:22:23.470Z,8
2023-09-27T02:24:54.087Z,8
2023-09-27T02:27:25.015Z,4
2023-09-27T02:29:55.673Z,8
2023-09-27T02:32:26.216Z,4
2023-09-27T02:34:56.746Z,8
2023-09-27T02:37:27.047Z,8
2023-09-27T02:39:57.494Z,8
2023-09-27T02:42:28.426Z,8
2023-09-27T02:44:59.773Z,8
2023-09-27T02:47:31.479Z,8
2023-09-27T02:50:01.893Z,8
2023-09-27T02:52:33.032Z,8
2023-09-27T02:55:03.851Z,8
2023-09-27T02:57:33.332Z,8
2023-09-27T03:00:03.908Z,8
2023-09-27T03:02:34.391Z,8
2023-09-27T03:05:05.103Z,8
2023-09-27T03:07:36.322Z,8
2023-09-27T03:10:06.782Z,8
2023-09-27T03:12:37.261Z,8
2023-09-27T03:15:09.400Z,8
2023-09-27T03:17:39.237Z,8
2023-09-27T03:20:10.874Z,8
2023-09-27T03:22:42.001Z,8
2023-09-27T03:25:13.201Z,8
2023-09-27T03:27:44.495Z,8
2023-09-27T03:30:15.109Z,8
2023-09-27T03:32:45.523Z,8
2023-09-27T03:35:16.740Z,8
2023-09-27T03:37:47.449Z,8
2023-09-27T03:40:16.980Z,8
2023-09-27T03:42:47.883Z,8
2023-09-27T03:45:18.600Z,8
2023-09-27T03:47:49.275Z,8
2023-09-27T03:50:20.252Z,11
2023-09-27T03:52:50.772Z,10
2023-09-27T03:55:21.420Z,8
2023-09-27T03:57:52.075Z,8
2023-09-27T04:00:23.724Z,10
2023-09-27T04:02:54.240Z,12
2023-09-27T04:05:24.536Z,8
2023-09-27T04:07:54.933Z,10
2023-09-27T04:10:23.806Z,12
2023-09-27T04:12:54.330Z,8
2023-09-27T04:15:23.633Z,8
2023-09-27T04:17:54.053Z,8
2023-09-27T04:20:23.271Z,12
2023-09-27T04:22:53.992Z,9
2023-09-27T04:25:23.407Z,8
2023-09-27T04:27:54.924Z,8
2023-09-27T04:30:23.819Z,8
2023-09-27T04:32:54.734Z,12
2023-09-27T04:35:25.629Z,16
2023-09-27T04:37:56.338Z,20
2023-09-27T04:40:27.108Z,30
2023-09-27T04:42:57.984Z,32
2023-09-27T04:45:29.691Z,17
2023-09-27T04:48:00.044Z,20
2023-09-27T04:50:30.980Z,17
2023-09-27T04:53:01.462Z,16
2023-09-27T04:55:31.998Z,15
2023-09-27T04:58:02.421Z,16
2023-09-27T05:00:31.241Z,16
2023-09-27T05:03:01.544Z,16
2023-09-27T05:05:32.454Z,12
2023-09-27T05:08:02.869Z,16
2023-09-27T05:10:33.536Z,16
2023-09-27T05:13:04.140Z,15
2023-09-27T05:15:34.861Z,16
2023-09-27T05:18:05.947Z,16
2023-09-27T05:20:36.210Z,13
2023-09-27T05:23:06.978Z,13
2023-09-27T05:25:38.807Z,12
2023-09-27T05:28:09.728Z,12
2023-09-27T05:30:40.251Z,12
2023-09-27T05:33:10.794Z,9
2023-09-27T05:35:39.657Z,12
2023-09-27T05:38:10.970Z,16
2023-09-27T05:40:41.435Z,20
2023-09-27T05:43:12.818Z,18
2023-09-27T05:45:43.647Z,20
2023-09-27T05:48:17.049Z,20
2023-09-27T05:50:47.591Z,17
2023-09-27T05:53:18.297Z,20
2023-09-27T05:55:49.012Z,16
2023-09-27T05:58:19.587Z,16
2023-09-27T06:00:49.852Z,20
2023-09-27T06:03:20.845Z,18
2023-09-27T06:05:51.315Z,20
2023-09-27T06:08:21.667Z,16
2023-09-27T06:10:52.618Z,16
2023-09-27T06:13:24.003Z,20
2023-09-27T06:15:55.032Z,16
2023-09-27T06:18:25.979Z,16
2023-09-27T06:20:56.526Z,16
2023-09-27T06:23:27.136Z,16
2023-09-27T06:25:57.544Z,16
2023-09-27T06:28:28.139Z,16
2023-09-27T06:30:58.910Z,13
2023-09-27T06:33:29.363Z,16
2023-09-27T06:35:59.700Z,13
2023-09-27T06:38:30.371Z,16
2023-09-27T06:41:00.802Z,12
2023-09-27T06:43:34.337Z,13
2023-09-27T06:46:05.325Z,16
2023-09-27T06:48:35.778Z,36
2023-09-27T06:51:06.195Z,24
2023-09-27T06:53:36.562Z,28
2023-09-27T06:56:07.016Z,24
2023-09-27T06:58:38.037Z,12
2023-09-27T07:01:09.303Z,12
2023-09-27T07:03:40.355Z,13
2023-09-27T07:06:11.212Z,8
2023-09-27T07:08:42.114Z,8
2023-09-27T07:11:12.455Z,8
2023-09-27T07:13:43.427Z,8
2023-09-27T07:16:14.378Z,8
2023-09-27T07:18:45.051Z,8
2023-09-27T07:21:15.783Z,8
2023-09-27T07:23:46.042Z,8
2023-09-27T07:26:16.802Z,8
2023-09-27T07:28:47.501Z,8
2023-09-27T07:31:18.710Z,8
2023-09-27T07:33:49.012Z,8
2023-09-27T07:36:19.538Z,8
2023-09-27T07:38:50.084Z,12
2023-09-27T07:41:20.695Z,9
2023-09-27T07:43:53.132Z,8
2023-09-27T07:46:23.687Z,8
2023-09-27T07:48:54.961Z,24
2023-09-27T07:51:26.642Z,12
2023-09-27T07:53:57.157Z,20
2023-09-27T07:56:28.073Z,12
2023-09-27T07:58:59.149Z,18
2023-09-27T08:01:29.885Z,12
2023-09-27T08:04:00.329Z,13
2023-09-27T08:06:31.793Z,16
2023-09-27T08:09:03.418Z,16
2023-09-27T08:11:35.295Z,8
2023-09-27T08:14:05.361Z,12
2023-09-27T08:16:36.063Z,12
2023-09-27T08:19:07.207Z,8
2023-09-27T08:21:37.581Z,8
2023-09-27T08:24:08.317Z,9
2023-09-27T08:26:39.454Z,8
2023-09-27T08:29:09.999Z,9
2023-09-27T08:31:40.927Z,8
2023-09-27T08:34:11.819Z,8
2023-09-27T08:36:42.728Z,12
2023-09-27T08:39:13.725Z,12
2023-09-27T08:41:44.643Z,12
2023-09-27T08:44:15.809Z,8
2023-09-27T08:46:46.781Z,8
2023-09-27T08:49:17.727Z,11
2023-09-27T08:51:48.671Z,12
2023-09-27T08:54:19.187Z,12
2023-09-27T08:56:49.811Z,12
2023-09-27T08:59:20.597Z,12
2023-09-27T09:01:51.037Z,8
2023-09-27T09:04:22.046Z,8
2023-09-27T09:06:52.468Z,12
2023-09-27T09:09:21.512Z,8
2023-09-27T09:11:52.156Z,12
2023-09-27T09:14:22.843Z,12
2023-09-27T09:16:53.398Z,12
2023-09-27T09:19:37.358Z,12
2023-09-27T09:21:55.557Z,9
2023-09-27T09:24:26.713Z,12
2023-09-27T09:26:57.434Z,13
2023-09-27T09:29:28.689Z,12
2023-09-27T09:31:58.981Z,12
2023-09-27T09:34:30.201Z,12
2023-09-27T09:37:01.762Z,10
2023-09-27T09:39:33.068Z,11
2023-09-27T09:42:03.386Z,12
2023-09-27T09:44:37.728Z,12
2023-09-27T09:47:09.031Z,12
2023-09-27T09:49:40.120Z,14
2023-09-27T09:52:11.048Z,12
2023-09-27T09:54:42.068Z,12
2023-09-27T09:57:19.102Z,12
2023-09-27T09:59:43.385Z,12
2023-09-27T10:02:13.764Z,16
2023-09-27T10:04:44.610Z,12
2023-09-27T10:07:15.235Z,13
2023-09-27T10:09:45.981Z,12
2023-09-27T10:12:17.185Z,12
2023-09-27T10:14:48.102Z,12
2023-09-27T10:17:18.635Z,16
2023-09-27T10:19:49.240Z,12
2023-09-27T10:22:20.352Z,16
2023-09-27T10:24:51.057Z,16
2023-09-27T10:27:22.065Z,13
2023-09-27T10:29:52.628Z,16
2023-09-27T10:32:23.430Z,12
2023-09-27T10:34:53.669Z,16
2023-09-27T10:37:23.829Z,16
2023-09-27T10:39:55.006Z,12
2023-09-27T10:42:25.676Z,16
2023-09-27T10:44:56.648Z,15
2023-09-27T10:47:27.932Z,12
2023-09-27T10:49:58.624Z,12
2023-09-27T10:52:29.237Z,12
2023-09-27T10:54:59.942Z,16
2023-09-27T10:57:34.713Z,12
2023-09-27T11:00:05.600Z,15
2023-09-27T11:02:36.781Z,12
2023-09-27T11:05:07.605Z,9
2023-09-27T11:07:38.429Z,12
2023-09-27T11:10:09.218Z,16
2023-09-27T11:12:43.889Z,16
2023-09-27T11:15:14.691Z,12
2023-09-27T11:17:45.174Z,16
2023-09-27T11:20:15.723Z,13
2023-09-27T11:22:46.824Z,13
2023-09-27T11:25:20.930Z,12
2023-09-27T11:27:51.048Z,12
2023-09-27T11:30:20.152Z,13
2023-09-27T11:32:51.420Z,16
2023-09-27T11:35:20.401Z,14
2023-09-27T11:37:51.691Z,16
2023-09-27T11:40:22.566Z,16
2023-09-27T11:42:53.152Z,15
2023-09-27T11:45:23.895Z,16
2023-09-27T11:47:54.909Z,13
2023-09-27T11:50:25.710Z,16
2023-09-27T11:52:55.993Z,15
2023-09-27T11:55:26.698Z,16
2023-09-27T11:57:55.451Z,13
2023-09-27T12:00:24.230Z,14
2023-09-27T12:02:57.530Z,16
2023-09-27T12:05:25.160Z,13
2023-09-27T12:07:55.139Z,16
2023-09-27T12:10:26.148Z,16
2023-09-27T12:12:56.899Z,16
2023-09-27T12:15:28.054Z,16
2023-09-27T12:18:01.821Z,16
2023-09-27T12:20:39.306Z,16
2023-09-27T12:23:03.473Z,15
2023-09-27T12:25:34.460Z,14
2023-09-27T12:28:05.427Z,12
2023-09-27T12:30:34.552Z,15
2023-09-27T12:33:06.310Z,16
2023-09-27T12:35:37.509Z,16
2023-09-27T12:38:11.870Z,16
2023-09-27T12:40:42.822Z,12
2023-09-27T12:43:14.088Z,13
2023-09-27T12:45:48.048Z,16
2023-09-27T12:48:19.088Z,16
2023-09-27T12:50:50.257Z,16
2023-09-27T12:53:20.980Z,16
2023-09-27T12:55:51.747Z,16
2023-09-27T13:01:01.696Z,16
2023-09-27T13:03:32.880Z,20
2023-09-27T13:06:03.672Z,20
2023-09-27T13:08:34.639Z,16
2023-09-27T13:11:05.635Z,16
2023-09-27T13:13:36.589Z,16
2023-09-27T13:16:09.100Z,16
2023-09-27T13:18:40.295Z,19
2023-09-27T13:21:11.130Z,20
2023-09-27T13:23:41.553Z,16
2023-09-27T13:26:12.498Z,20
2023-09-27T13:28:43.313Z,16
2023-09-27T13:31:14.096Z,16
2023-09-27T13:33:55.254Z,16
2023-09-27T13:36:16.411Z,16
2023-09-27T13:38:47.400Z,16
2023-09-27T13:41:18.564Z,16
2023-09-27T13:43:49.349Z,18
2023-09-27T13:46:20.653Z,16
2023-09-27T13:48:51.438Z,16
2023-09-27T13:51:22.211Z,20
2023-09-27T13:53:53.436Z,16
2023-09-27T13:56:24.226Z,20
2023-09-27T13:58:55.305Z,16
2023-09-27T14:01:25.969Z,16
2023-09-27T14:03:57.156Z,17
2023-09-27T14:06:28.507Z,20
2023-09-27T14:08:59.563Z,20
2023-09-27T14:11:30.080Z,20
2023-09-27T14:14:00.277Z,17
2023-09-27T14:16:31.225Z,14
2023-09-27T14:19:02.023Z,16
2023-09-27T14:21:32.866Z,16
2023-09-27T14:24:03.815Z,19
2023-09-27T14:26:34.421Z,16
2023-09-27T14:29:03.021Z,20
2023-09-27T14:31:34.088Z,16
2023-09-27T14:34:05.365Z,16
2023-09-27T14:36:36.070Z,20
2023-09-27T14:39:07.155Z,16
2023-09-27T14:41:38.392Z,16
2023-09-27T14:44:09.345Z,20
2023-09-27T14:46:40.423Z,16
2023-09-27T14:49:11.081Z,20
2023-09-27T14:51:42.244Z,18
2023-09-27T14:54:12.950Z,27
2023-09-27T14:56:41.848Z,18
2023-09-27T14:59:12.587Z,16
2023-09-27T15:01:43.907Z,20
2023-09-27T15:04:14.803Z,20
2023-09-27T15:06:45.806Z,16
2023-09-27T15:09:16.709Z,14
2023-09-27T15:11:47.733Z,16
2023-09-27T15:14:18.588Z,18
2023-09-27T15:16:47.641Z,16
2023-09-27T15:19:18.444Z,16
2023-09-27T15:21:49.260Z,13
2023-09-27T15:24:18.249Z,20
2023-09-27T15:26:47.211Z,20
2023-09-27T15:29:18.328Z,27
2023-09-27T15:31:50.234Z,24
2023-09-27T15:34:21.433Z,27
2023-09-27T15:36:52.279Z,25
2023-09-27T15:39:23.550Z,20
2023-09-27T15:41:55.435Z,24
2023-09-27T15:44:26.167Z,20
2023-09-27T15:46:57.227Z,16
2023-09-27T15:49:28.135Z,16
2023-09-27T15:51:58.956Z,15
2023-09-27T15:54:29.953Z,14
2023-09-27T15:57:00.964Z,16
2023-09-27T15:59:31.749Z,16
2023-09-27T16:02:02.915Z,17
2023-09-27T16:04:42.103Z,18
2023-09-27T16:07:04.340Z,16
2023-09-27T16:09:35.299Z,16
2023-09-27T16:12:04.069Z,18
2023-09-27T16:14:34.512Z,17
2023-09-27T16:17:05.286Z,28
2023-09-27T16:19:35.685Z,16
2023-09-27T16:22:06.087Z,20
2023-09-27T16:24:36.431Z,20
2023-09-27T16:27:07.057Z,16
2023-09-27T16:29:37.311Z,20
2023-09-27T16:32:07.755Z,16
2023-09-27T16:34:38.171Z,16
2023-09-27T16:37:08.583Z,16
2023-09-27T16:39:38.989Z,16
2023-09-27T16:42:09.509Z,20
2023-09-27T16:44:39.729Z,24
2023-09-27T16:47:10.073Z,24
2023-09-27T16:49:40.697Z,20
2023-09-27T16:52:10.805Z,20
2023-09-27T16:54:40.926Z,20
2023-09-27T16:57:11.111Z,24
2023-09-27T16:59:41.703Z,20
2023-09-27T17:02:12.832Z,20
2023-09-27T17:04:43.689Z,22
2023-09-27T17:07:14.485Z,20
2023-09-27T17:09:43.028Z,20
2023-09-27T17:12:13.305Z,20
2023-09-27T17:14:44.052Z,21
2023-09-27T17:17:14.313Z,20
2023-09-27T17:19:44.729Z,20
2023-09-27T17:22:13.817Z,20
2023-09-27T17:24:44.669Z,20
2023-09-27T17:27:15.947Z,20
2023-09-27T17:29:46.114Z,20
2023-09-27T17:32:16.181Z,20
2023-09-27T17:34:46.740Z,20
2023-09-27T17:37:16.960Z,20
2023-09-27T17:39:47.828Z,20
2023-09-27T17:42:16.882Z,21
2023-09-27T17:44:48.581Z,20
2023-09-27T17:47:17.733Z,20
2023-09-27T17:49:48.967Z,24
2023-09-27T17:52:19.179Z,23
2023-09-27T17:54:50.306Z,24
2023-09-27T17:57:21.472Z,24
2023-09-27T17:59:52.108Z,24
2023-09-27T18:02:26.270Z,24
2023-09-27T18:04:56.447Z,24
2023-09-27T18:07:26.729Z,24
2023-09-27T18:09:57.534Z,24
2023-09-27T18:12:28.352Z,22
2023-09-27T18:14:59.346Z,20
2023-09-27T18:17:29.044Z,20
2023-09-27T18:20:00.291Z,20
2023-09-27T18:22:28.889Z,20
2023-09-27T18:24:59.594Z,23
2023-09-27T18:27:30.242Z,24
2023-09-27T18:30:02.463Z,24
2023-09-27T18:32:29.945Z,21
2023-09-27T18:35:00.167Z,24
2023-09-27T18:37:31.488Z,24
2023-09-27T18:40:01.841Z,24
2023-09-27T18:42:32.014Z,23
2023-09-27T18:45:02.846Z,24
2023-09-27T18:47:33.811Z,24
2023-09-27T18:50:04.057Z,24
2023-09-27T18:52:34.205Z,24
2023-09-27T18:55:02.949Z,24
2023-09-27T18:57:31.800Z,22
2023-09-27T19:00:01.887Z,24
2023-09-27T19:02:33.754Z,24
2023-09-27T19:05:04.254Z,24
2023-09-27T19:07:35.179Z,24
2023-09-27T19:10:05.463Z,24
2023-09-27T19:12:35.570Z,24
2023-09-27T19:15:06.553Z,24
2023-09-27T19:17:36.764Z,24
2023-09-27T19:20:05.820Z,24
2023-09-27T19:22:34.584Z,24
2023-09-27T19:25:04.524Z,21
2023-09-27T19:27:35.170Z,22
2023-09-27T19:30:06.041Z,20
2023-09-27T19:32:36.358Z,20
2023-09-27T19:35:07.203Z,23
2023-09-27T19:37:37.750Z,23
2023-09-27T19:40:08.162Z,21
2023-09-27T19:42:38.991Z,20
2023-09-27T19:45:10.083Z,20
2023-09-27T19:47:40.674Z,22
2023-09-27T19:50:11.612Z,24
2023-09-27T19:52:42.661Z,24
2023-09-27T19:55:12.730Z,27
2023-09-27T19:57:43.635Z,27
2023-09-27T20:00:18.523Z,24
2023-09-27T20:02:45.416Z,24
2023-09-27T20:05:16.235Z,24
2023-09-27T20:07:47.565Z,28
2023-09-27T20:10:18.576Z,28
2023-09-27T20:12:49.031Z,24
2023-09-27T20:15:19.851Z,24
2023-09-27T20:17:50.662Z,23
2023-09-27T20:20:22.028Z,24
2023-09-27T20:22:53.021Z,20
2023-09-27T20:25:24.698Z,20
2023-09-27T20:27:55.992Z,20
2023-09-27T20:30:26.981Z,24
2023-09-27T20:32:55.808Z,24
2023-09-27T20:35:26.480Z,20
2023-09-27T20:37:58.273Z,20
2023-09-27T20:40:28.991Z,20
2023-09-27T20:42:59.372Z,20
2023-09-27T20:45:30.034Z,21
2023-09-27T20:47:58.912Z,24
2023-09-27T20:50:29.794Z,23
2023-09-27T20:53:00.708Z,20
2023-09-27T20:55:31.910Z,20
2023-09-27T20:58:02.776Z,24
2023-09-27T21:00:33.572Z,24
2023-09-27T21:03:04.117Z,24
2023-09-27T21:05:34.296Z,24
2023-09-27T21:08:04.382Z,24
2023-09-27T21:10:34.629Z,24
2023-09-27T21:13:04.864Z,24
2023-09-27T21:15:36.544Z,24
2023-09-27T21:18:06.692Z,24
2023-09-27T21:20:37.636Z,23
2023-09-27T21:23:08.545Z,23
2023-09-27T21:25:39.326Z,24
2023-09-27T21:28:10.097Z,20
2023-09-27T21:30:40.828Z,24
2023-09-27T21:33:11.826Z,24
2023-09-27T21:35:42.354Z,24
2023-09-27T21:38:13.802Z,24
2023-09-27T21:40:44.874Z,24
2023-09-27T21:43:15.675Z,28
2023-09-27T21:45:47.333Z,26
2023-09-27T21:48:17.459Z,24
2023-09-27T21:50:48.368Z,24
2023-09-27T21:53:19.242Z,28
2023-09-27T21:55:48.433Z,24
2023-09-27T21:58:17.708Z,24
2023-09-27T22:00:48.714Z,24
2023-09-27T22:03:19.427Z,27
2023-09-27T22:05:50.326Z,20
2023-09-27T22:08:21.172Z,24
2023-09-27T22:10:52.555Z,24
2023-09-27T22:13:23.501Z,28
2023-09-27T22:15:55.179Z,24
2023-09-27T22:18:24.110Z,24
2023-09-27T22:20:54.815Z,24
2023-09-27T22:23:25.881Z,24
2023-09-27T22:25:55.102Z,22
2023-09-27T22:28:26.044Z,24
2023-09-27T22:30:56.771Z,24
2023-09-27T22:33:25.508Z,24
2023-09-27T22:35:56.253Z,20
2023-09-27T22:38:27.179Z,25
2023-09-27T22:40:57.543Z,21
2023-09-27T22:43:28.737Z,20
2023-09-27T22:45:59.186Z,23
2023-09-27T22:48:28.098Z,24
2023-09-27T22:50:59.447Z,24
2023-09-27T22:53:29.733Z,20
2023-09-27T22:56:00.718Z,20
2023-09-27T22:58:31.767Z,23
2023-09-27T23:01:02.496Z,21
2023-09-27T23:03:33.512Z,20
2023-09-27T23:06:04.862Z,23
2023-09-27T23:08:35.973Z,23
2023-09-27T23:11:06.977Z,20
2023-09-27T23:13:37.895Z,20
2023-09-27T23:16:08.995Z,24
2023-09-27T23:18:38.042Z,21
2023-09-27T23:21:08.472Z,21
2023-09-27T23:23:39.354Z,21
2023-09-27T23:26:08.419Z,20
2023-09-27T23:28:39.293Z,21
2023-09-27T23:31:10.390Z,20
2023-09-27T23:33:40.709Z,23
2023-09-27T23:36:11.024Z,20
2023-09-27T23:38:41.674Z,20
2023-09-27T23:41:12.833Z,20
2023-09-27T23:43:43.875Z,23
2023-09-27T23:46:15.441Z,20
2023-09-27T23:48:46.539Z,20
2023-09-27T23:51:17.117Z,20
2023-09-27T23:53:47.501Z,20
2023-09-27T23:56:18.317Z,20
2023-09-27T23:58:47.537Z,20
